Time;durP1;ratioP1;P1;durP2;ratioP2;P2;SDS_P1;SDS_P2;PMS_P1;PMS_P2;Temp;Humidity;BMP_temperature;BMP_pressure;BME280_temperature;BME280_humidity;BME280_pressure;Samples;Min_cycle;Max_cycle;Signal;HPM_P1;HPM_P2
2023/12/15 00:00:30;;;;;;;;;;;5.40;99.90;;;;;;5104269;28;19981;-69
2023/12/15 00:02:56;;;;;;;;;;;5.30;99.90;;;;;;5102097;28;19955;-69
2023/12/15 00:05:21;;;;;;;;;;;5.30;99.90;;;;;;5103611;28;19918;-69
2023/12/15 00:07:47;;;;;;;;;;;5.30;99.90;;;;;;5091772;28;19919;-69
2023/12/15 00:10:12;;;;;;;;;;;5.30;99.90;;;;;;5098760;28;19951;-69
2023/12/15 00:12:38;;;;;;;;;;;5.30;99.90;;;;;;5106845;28;20674;-69
2023/12/15 00:15:03;;;;;;;;;;;5.30;99.90;;;;;;5106441;28;20436;-69
2023/12/15 00:17:29;;;;;;;;;;;5.30;99.90;;;;;;5109441;27;19918;-69
2023/12/15 00:19:54;;;;;;;;;;;5.30;99.90;;;;;;5115814;27;20333;-69
2023/12/15 00:22:20;;;;;;;;;;;5.30;99.90;;;;;;5107892;28;19939;-69
2023/12/15 00:24:45;;;;;;;;;;;5.30;99.90;;;;;;5107575;28;19955;-69
2023/12/15 00:27:11;;;;;;;;;;;5.30;99.90;;;;;;5107651;28;20006;-69
2023/12/15 00:29:36;;;;;;;;;;;5.30;99.90;;;;;;5107595;28;20014;-69
2023/12/15 00:32:02;;;;;;;;;;;5.30;99.90;;;;;;5107123;27;20437;-69
2023/12/15 00:34:28;;;;;;;;;;;5.30;99.90;;;;;;5107623;28;19908;-69
2023/12/15 00:36:53;;;;;;;;;;;5.30;99.90;;;;;;5105619;28;19957;-69
2023/12/15 00:39:19;;;;;;;;;;;5.30;99.90;;;;;;5107500;28;19920;-69
2023/12/15 00:41:44;;;;;;;;;;;5.30;99.90;;;;;;5107425;27;20254;-69
2023/12/15 00:44:10;;;;;;;;;;;5.20;99.90;;;;;;5106060;28;19947;-69
2023/12/15 00:46:35;;;;;;;;;;;5.20;99.90;;;;;;5107034;28;19912;-68
2023/12/15 00:49:00;;;;;;;;;;;5.30;99.90;;;;;;5106803;28;20342;-69
2023/12/15 00:51:26;;;;;;;;;;;5.30;99.90;;;;;;5107415;28;19912;-69
2023/12/15 00:53:52;;;;;;;;;;;5.30;99.90;;;;;;5106904;28;19914;-69
2023/12/15 00:56:17;;;;;;;;;;;5.30;99.90;;;;;;5105542;28;19916;-69
2023/12/15 00:58:42;;;;;;;;;;;5.30;99.90;;;;;;5123740;27;19975;-69
2023/12/15 01:01:08;;;;;;;;;;;5.30;99.90;;;;;;5115655;27;20472;-69
2023/12/15 01:03:34;;;;;;;;;;;5.30;99.90;;;;;;5119791;27;20406;-69
2023/12/15 01:05:59;;;;;;;;;;;5.30;99.90;;;;;;5126338;27;19922;-69
2023/12/15 01:08:25;;;;;;;;;;;5.30;99.90;;;;;;5112549;27;19911;-69
2023/12/15 01:10:50;;;;;;;;;;;5.30;99.90;;;;;;5106833;27;20429;-69
2023/12/15 01:13:16;;;;;;;;;;;5.30;99.90;;;;;;5106924;28;19957;-69
2023/12/15 01:15:41;;;;;;;;;;;5.30;99.90;;;;;;5104772;27;19908;-69
2023/12/15 01:18:07;;;;;;;;;;;5.30;99.90;;;;;;5100255;28;19995;-69
2023/12/15 01:20:32;;;;;;;;;;;5.30;99.90;;;;;;5106371;27;19916;-69
2023/12/15 01:22:58;;;;;;;;;;;5.30;99.90;;;;;;5113752;27;20403;-69
2023/12/15 01:25:23;;;;;;;;;;;5.30;99.90;;;;;;5113763;27;19919;-69
2023/12/15 01:27:50;;;;;;;;;;;5.30;99.90;;;;;;5105083;28;20339;-69
2023/12/15 01:30:15;;;;;;;;;;;5.30;99.90;;;;;;5105974;28;20557;-68
2023/12/15 01:32:41;;;;;;;;;;;5.30;99.90;;;;;;5106132;28;20000;-69
2023/12/15 01:35:06;;;;;;;;;;;5.30;99.90;;;;;;5104565;28;20325;-69
2023/12/15 01:37:32;;;;;;;;;;;5.30;99.90;;;;;;5106169;28;19927;-69
2023/12/15 01:39:57;;;;;;;;;;;5.30;99.90;;;;;;5104230;28;20344;-69
2023/12/15 01:42:24;;;;;;;;;;;5.40;99.90;;;;;;5106242;28;19919;-69
2023/12/15 01:44:50;;;;;;;;;;;5.40;99.90;;;;;;5114215;27;19912;-69
2023/12/15 01:47:18;;;;;;;;;;;5.40;99.90;;;;;;5105907;28;20053;-69
2023/12/15 01:49:45;;;;;;;;;;;5.40;99.90;;;;;;5104279;28;19919;-69
2023/12/15 01:52:10;;;;;;;;;;;5.40;99.90;;;;;;5105835;28;19987;-69
2023/12/15 01:54:36;;;;;;;;;;;5.40;99.90;;;;;;5113722;27;19915;-69
2023/12/15 01:57:01;;;;;;;;;;;5.40;99.90;;;;;;5114948;27;19935;-69
2023/12/15 01:59:40;;;;;;;;;;;5.40;99.90;;;;;;5106191;28;19920;-69
2023/12/15 02:02:05;;;;;;;;;;;5.40;99.90;;;;;;5105476;28;20011;-69
2023/12/15 02:04:30;;;;;;;;;;;5.40;99.90;;;;;;5105633;28;20126;-69
2023/12/15 02:06:56;;;;;;;;;;;5.40;99.90;;;;;;5105244;28;19911;-69
2023/12/15 02:09:21;;;;;;;;;;;5.40;99.90;;;;;;5105691;28;19908;-69
2023/12/15 02:11:47;;;;;;;;;;;5.40;99.90;;;;;;5114833;27;19938;-69
2023/12/15 02:14:12;;;;;;;;;;;5.40;99.90;;;;;;5126388;27;19990;-69
2023/12/15 02:16:38;;;;;;;;;;;5.40;99.90;;;;;;5117989;27;19972;-69
2023/12/15 02:19:03;;;;;;;;;;;5.40;99.90;;;;;;5104305;27;19915;-69
2023/12/15 02:21:31;;;;;;;;;;;5.40;99.90;;;;;;5117596;27;19912;-69
2023/12/15 02:23:57;;;;;;;;;;;5.40;99.90;;;;;;5114621;27;19933;-69
2023/12/15 02:26:22;;;;;;;;;;;5.40;99.90;;;;;;5105188;28;19915;-69
2023/12/15 02:28:48;;;;;;;;;;;5.50;99.90;;;;;;5104991;28;19924;-69
2023/12/15 02:31:13;;;;;;;;;;;5.50;99.90;;;;;;5105118;28;19911;-69
2023/12/15 02:33:39;;;;;;;;;;;5.40;99.90;;;;;;5104555;28;20380;-69
2023/12/15 02:36:05;;;;;;;;;;;5.50;99.90;;;;;;5104912;28;20357;-69
2023/12/15 02:38:30;;;;;;;;;;;5.50;99.90;;;;;;5103586;28;19945;-69
2023/12/15 02:40:56;;;;;;;;;;;5.50;99.90;;;;;;5104918;28;20367;-69
2023/12/15 02:43:21;;;;;;;;;;;5.50;99.90;;;;;;5113533;27;19912;-68
2023/12/15 02:45:47;;;;;;;;;;;5.50;99.90;;;;;;5105605;27;19912;-69
2023/12/15 02:48:12;;;;;;;;;;;5.50;99.90;;;;;;5125431;27;20387;-68
2023/12/15 02:50:38;;;;;;;;;;;5.50;99.90;;;;;;5109270;27;19912;-69
2023/12/15 02:53:03;;;;;;;;;;;5.50;99.90;;;;;;5103545;28;19918;-69
2023/12/15 02:55:29;;;;;;;;;;;5.50;99.90;;;;;;5100617;27;19921;-69
2023/12/15 02:57:54;;;;;;;;;;;5.50;99.90;;;;;;5094901;27;20340;-69
2023/12/15 03:00:20;;;;;;;;;;;5.50;99.90;;;;;;5098547;28;20352;-69
2023/12/15 03:02:45;;;;;;;;;;;5.50;99.90;;;;;;5103464;28;19964;-69
2023/12/15 03:05:11;;;;;;;;;;;5.50;99.90;;;;;;5104917;27;19912;-69
2023/12/15 03:07:36;;;;;;;;;;;5.50;99.90;;;;;;5104628;28;20499;-69
2023/12/15 03:10:02;;;;;;;;;;;5.60;99.90;;;;;;5104443;28;20280;-69
2023/12/15 03:12:28;;;;;;;;;;;5.60;99.90;;;;;;5105123;28;19922;-68
2023/12/15 03:14:56;;;;;;;;;;;5.60;99.90;;;;;;5099483;28;19916;-69
2023/12/15 03:17:22;;;;;;;;;;;5.50;99.90;;;;;;5104437;28;20281;-69
2023/12/15 03:19:47;;;;;;;;;;;5.50;99.90;;;;;;5104601;28;19941;-69
2023/12/15 03:22:13;;;;;;;;;;;5.60;99.90;;;;;;5104867;27;19919;-68
2023/12/15 03:24:38;;;;;;;;;;;5.60;99.90;;;;;;5104383;28;19919;-69
2023/12/15 03:27:04;;;;;;;;;;;5.60;99.90;;;;;;5103896;28;19918;-69
2023/12/15 03:29:30;;;;;;;;;;;5.60;99.90;;;;;;5104325;28;19919;-69
2023/12/15 03:31:56;;;;;;;;;;;5.60;99.90;;;;;;5103082;28;19912;-69
2023/12/15 03:34:21;;;;;;;;;;;5.60;99.90;;;;;;5104679;28;20121;-68
2023/12/15 03:36:47;;;;;;;;;;;5.60;99.90;;;;;;5103990;28;20018;-69
2023/12/15 03:39:12;;;;;;;;;;;5.60;99.90;;;;;;5104444;28;20014;-69
2023/12/15 03:41:38;;;;;;;;;;;5.60;99.90;;;;;;5104161;28;20691;-69
2023/12/15 03:44:03;;;;;;;;;;;5.60;99.90;;;;;;5102778;28;19980;-69
2023/12/15 03:46:29;;;;;;;;;;;5.60;99.90;;;;;;5108126;28;19951;-69
2023/12/15 03:48:55;;;;;;;;;;;5.60;99.90;;;;;;5105111;28;20412;-69
2023/12/15 03:51:20;;;;;;;;;;;5.60;99.90;;;;;;5108244;28;19915;-69
2023/12/15 03:53:46;;;;;;;;;;;5.60;99.90;;;;;;5108558;28;19995;-69
2023/12/15 03:56:11;;;;;;;;;;;5.60;99.90;;;;;;5108012;28;19990;-69
2023/12/15 03:58:37;;;;;;;;;;;5.60;99.90;;;;;;5108235;28;19915;-69
2023/12/15 04:01:02;;;;;;;;;;;5.60;99.90;;;;;;5107868;28;19916;-69
2023/12/15 04:03:28;;;;;;;;;;;5.60;99.90;;;;;;5108339;28;19919;-69
2023/12/15 04:05:53;;;;;;;;;;;5.60;99.90;;;;;;5107586;28;19912;-69
2023/12/15 04:08:19;;;;;;;;;;;5.60;99.90;;;;;;5108278;28;20357;-69
2023/12/15 04:10:45;;;;;;;;;;;5.60;99.90;;;;;;5106557;28;20402;-69
2023/12/15 04:13:10;;;;;;;;;;;5.60;99.90;;;;;;5108428;28;20454;-69
2023/12/15 04:15:36;;;;;;;;;;;5.60;99.90;;;;;;5107805;27;19918;-69
2023/12/15 04:18:04;;;;;;;;;;;5.60;99.90;;;;;;5107564;27;19915;-69
2023/12/15 04:20:29;;;;;;;;;;;5.70;99.90;;;;;;5108274;28;20473;-69
2023/12/15 04:22:55;;;;;;;;;;;5.60;99.90;;;;;;5104891;28;19939;-69
2023/12/15 04:25:20;;;;;;;;;;;5.60;99.90;;;;;;5107842;28;20261;-69
2023/12/15 04:27:46;;;;;;;;;;;5.70;99.90;;;;;;5107968;28;20560;-69
2023/12/15 04:30:12;;;;;;;;;;;5.60;99.90;;;;;;5107687;28;19928;-69
2023/12/15 04:32:37;;;;;;;;;;;5.70;99.90;;;;;;5108106;28;19923;-69
2023/12/15 04:35:03;;;;;;;;;;;5.70;99.90;;;;;;5107394;28;19968;-69
2023/12/15 04:37:28;;;;;;;;;;;5.70;99.90;;;;;;5107757;28;19920;-69
2023/12/15 04:39:54;;;;;;;;;;;5.70;99.90;;;;;;5107255;28;19915;-69
2023/12/15 04:42:19;;;;;;;;;;;5.70;99.90;;;;;;5107748;28;19912;-69
2023/12/15 04:44:45;;;;;;;;;;;5.70;99.90;;;;;;5105941;28;19972;-69
2023/12/15 04:47:10;;;;;;;;;;;5.70;99.90;;;;;;5107305;28;19939;-69
2023/12/15 04:49:37;;;;;;;;;;;5.70;99.90;;;;;;5107184;28;19971;-69
2023/12/15 04:52:03;;;;;;;;;;;5.70;99.90;;;;;;5107184;28;19916;-69
2023/12/15 04:54:29;;;;;;;;;;;5.70;99.90;;;;;;5107446;28;19912;-69
2023/12/15 04:56:54;;;;;;;;;;;5.70;99.90;;;;;;5105073;28;19912;-69
2023/12/15 04:59:20;;;;;;;;;;;5.70;99.90;;;;;;5107240;28;20221;-69
2023/12/15 05:01:45;;;;;;;;;;;5.70;99.90;;;;;;5107033;28;19912;-69
2023/12/15 05:04:11;;;;;;;;;;;5.70;99.90;;;;;;5107069;28;19961;-69
2023/12/15 05:06:36;;;;;;;;;;;5.70;99.90;;;;;;5107032;27;19912;-68
2023/12/15 05:09:04;;;;;;;;;;;5.70;99.90;;;;;;5107298;27;19916;-69
2023/12/15 05:11:33;;;;;;;;;;;5.70;99.90;;;;;;5107048;28;19908;-69
2023/12/15 05:13:58;;;;;;;;;;;5.80;99.90;;;;;;5107162;28;19986;-69
2023/12/15 05:16:24;;;;;;;;;;;5.70;99.90;;;;;;5106370;28;20012;-69
2023/12/15 05:18:49;;;;;;;;;;;5.80;99.90;;;;;;5106720;28;20279;-69
2023/12/15 05:21:15;;;;;;;;;;;5.80;99.90;;;;;;5106590;28;19912;-69
2023/12/15 05:23:40;;;;;;;;;;;5.80;99.90;;;;;;5106999;27;19915;-69
2023/12/15 05:26:06;;;;;;;;;;;5.80;99.90;;;;;;5106324;27;19912;-69
2023/12/15 05:28:31;;;;;;;;;;;5.80;99.90;;;;;;5106993;28;19912;-69
2023/12/15 05:30:57;;;;;;;;;;;5.80;99.90;;;;;;5106657;28;19919;-69
2023/12/15 05:33:23;;;;;;;;;;;5.80;99.90;;;;;;5106905;28;19916;-69
2023/12/15 05:35:49;;;;;;;;;;;5.80;99.90;;;;;;5106007;28;19915;-69
2023/12/15 05:38:14;;;;;;;;;;;5.80;99.90;;;;;;5105148;28;20304;-69
2023/12/15 05:40:40;;;;;;;;;;;5.80;99.90;;;;;;5106691;28;19912;-69
2023/12/15 05:43:06;;;;;;;;;;;5.80;99.90;;;;;;5106524;27;20310;-69
2023/12/15 05:45:31;;;;;;;;;;;5.80;99.90;;;;;;5106355;28;19912;-69
2023/12/15 05:47:57;;;;;;;;;;;5.80;99.90;;;;;;5105548;28;19915;-69
2023/12/15 05:50:22;;;;;;;;;;;5.80;99.90;;;;;;5099979;27;20241;-69
2023/12/15 05:52:48;;;;;;;;;;;5.80;99.90;;;;;;5105861;28;19946;-69
2023/12/15 05:55:13;;;;;;;;;;;5.80;99.90;;;;;;5105078;28;20388;-69
2023/12/15 05:57:39;;;;;;;;;;;5.80;99.90;;;;;;5105333;28;19919;-69
2023/12/15 06:00:04;;;;;;;;;;;5.80;99.90;;;;;;5104946;28;19967;-69
2023/12/15 06:02:30;;;;;;;;;;;5.80;99.90;;;;;;5104494;28;20556;-69
2023/12/15 06:04:55;;;;;;;;;;;5.80;99.90;;;;;;5104247;28;19912;-69
2023/12/15 06:07:21;;;;;;;;;;;5.80;99.90;;;;;;5105063;28;19954;-69
2023/12/15 06:09:46;;;;;;;;;;;5.90;99.90;;;;;;5105880;28;19942;-69
2023/12/15 06:12:12;;;;;;;;;;;5.80;99.90;;;;;;5106470;28;19912;-69
2023/12/15 06:14:37;;;;;;;;;;;5.80;99.90;;;;;;5105756;28;19916;-69
2023/12/15 06:17:06;;;;;;;;;;;5.90;99.90;;;;;;5103797;28;19940;-69
2023/12/15 06:19:32;;;;;;;;;;;5.90;99.90;;;;;;5112363;27;20309;-69
2023/12/15 06:21:58;;;;;;;;;;;5.90;99.90;;;;;;5105659;28;20406;-69
2023/12/15 06:24:23;;;;;;;;;;;5.90;99.90;;;;;;5105672;28;19912;-69
2023/12/15 06:26:49;;;;;;;;;;;5.90;99.90;;;;;;5105299;28;19912;-69
2023/12/15 06:29:14;;;;;;;;;;;5.90;99.90;;;;;;5105753;28;20887;-69
2023/12/15 06:31:49;;;;;;;;;;;5.90;99.90;;;;;;5105358;28;19991;-69
2023/12/15 06:34:14;;;;;;;;;;;5.90;99.90;;;;;;5122051;27;19918;-69
2023/12/15 06:36:40;;;;;;;;;;;5.90;99.90;;;;;;5091897;28;19916;-69
2023/12/15 06:39:06;;;;;;;;;;;5.90;99.90;;;;;;5113310;27;19916;-69
2023/12/15 06:41:31;;;;;;;;;;;5.90;99.90;;;;;;5108589;27;20006;-69
2023/12/15 06:43:57;;;;;;;;;;;5.90;99.90;;;;;;5100921;28;20531;-69
2023/12/15 06:46:22;;;;;;;;;;;5.90;99.90;;;;;;5104944;28;19912;-69
2023/12/15 06:48:48;;;;;;;;;;;5.90;99.90;;;;;;5104781;27;19919;-69
2023/12/15 06:51:14;;;;;;;;;;;5.90;99.90;;;;;;5104814;28;19918;-69
2023/12/15 06:53:40;;;;;;;;;;;5.90;99.90;;;;;;5099965;28;19919;-69
2023/12/15 06:56:06;;;;;;;;;;;6.00;99.90;;;;;;5104503;28;20305;-69
2023/12/15 06:58:31;;;;;;;;;;;5.90;99.90;;;;;;5105140;28;19922;-69
2023/12/15 07:00:57;;;;;;;;;;;5.90;99.90;;;;;;5104604;28;19918;-69
2023/12/15 07:03:22;;;;;;;;;;;5.90;99.90;;;;;;5105519;28;19916;-69
2023/12/15 07:05:48;;;;;;;;;;;5.90;99.90;;;;;;5104576;28;20364;-69
2023/12/15 07:08:13;;;;;;;;;;;5.90;99.90;;;;;;5105257;28;20618;-69
2023/12/15 07:10:39;;;;;;;;;;;5.90;99.90;;;;;;5111536;27;19958;-69
2023/12/15 07:13:05;;;;;;;;;;;5.90;99.90;;;;;;5104987;28;20321;-69
2023/12/15 07:15:32;;;;;;;;;;;6.00;99.90;;;;;;5104662;28;19911;-69
2023/12/15 07:17:57;;;;;;;;;;;6.00;99.90;;;;;;5104669;28;19916;-69
2023/12/15 07:20:25;;;;;;;;;;;5.90;99.90;;;;;;5107370;28;20287;-69
2023/12/15 07:22:51;;;;;;;;;;;6.00;99.90;;;;;;5108911;28;19911;-69
2023/12/15 07:25:16;;;;;;;;;;;6.00;99.90;;;;;;5109045;28;19918;-69
2023/12/15 07:27:43;;;;;;;;;;;6.00;99.90;;;;;;5108561;28;20300;-69
2023/12/15 07:30:08;;;;;;;;;;;6.00;99.90;;;;;;5107905;28;19937;-69
2023/12/15 07:32:34;;;;;;;;;;;6.00;99.90;;;;;;5116021;27;19912;-69
2023/12/15 07:34:59;;;;;;;;;;;6.00;99.90;;;;;;5110159;27;20009;-69
2023/12/15 07:37:25;;;;;;;;;;;6.00;99.90;;;;;;5108829;28;19915;-69
2023/12/15 07:39:50;;;;;;;;;;;6.00;99.90;;;;;;5108646;28;20114;-69
2023/12/15 07:42:16;;;;;;;;;;;6.00;99.90;;;;;;5109081;28;19919;-69
2023/12/15 07:44:41;;;;;;;;;;;6.00;99.90;;;;;;5108816;28;20237;-69
2023/12/15 07:47:07;;;;;;;;;;;6.10;99.90;;;;;;5108463;28;19987;-69
2023/12/15 07:49:34;;;;;;;;;;;6.00;99.90;;;;;;5108609;28;19916;-69
2023/12/15 07:52:00;;;;;;;;;;;6.00;99.90;;;;;;5108402;28;20006;-69
2023/12/15 07:54:25;;;;;;;;;;;6.00;99.90;;;;;;5108364;28;19999;-69
2023/12/15 07:56:51;;;;;;;;;;;6.00;99.90;;;;;;5107966;28;19969;-69
2023/12/15 07:59:16;;;;;;;;;;;6.00;99.90;;;;;;5107829;28;20516;-69
2023/12/15 08:01:47;;;;;;;;;;;6.00;99.90;;;;;;5107364;28;19912;-69
2023/12/15 08:04:13;;;;;;;;;;;6.10;99.90;;;;;;5100244;28;19912;-69
2023/12/15 08:06:38;;;;;;;;;;;6.10;99.90;;;;;;5108114;28;19965;-69
2023/12/15 08:09:04;;;;;;;;;;;6.10;99.90;;;;;;5108053;28;20360;-69
2023/12/15 08:11:30;;;;;;;;;;;6.10;99.90;;;;;;5108486;27;19916;-69
2023/12/15 08:13:55;;;;;;;;;;;6.10;99.90;;;;;;5107784;28;20681;-69
2023/12/15 08:16:21;;;;;;;;;;;6.10;99.90;;;;;;5107557;28;19922;-69
2023/12/15 08:18:46;;;;;;;;;;;6.10;99.90;;;;;;5106604;27;19922;-69
2023/12/15 08:21:12;;;;;;;;;;;6.10;99.90;;;;;;5112664;27;20014;-69
2023/12/15 08:23:38;;;;;;;;;;;6.10;99.90;;;;;;5107811;28;20276;-69
2023/12/15 08:26:03;;;;;;;;;;;6.10;99.90;;;;;;5107177;28;19912;-69
2023/12/15 08:28:29;;;;;;;;;;;6.10;99.90;;;;;;5114095;27;19915;-69
2023/12/15 08:30:54;;;;;;;;;;;6.10;99.90;;;;;;5102155;27;19922;-69
2023/12/15 08:33:20;;;;;;;;;;;6.10;99.90;;;;;;5099950;28;19912;-69
2023/12/15 08:35:45;;;;;;;;;;;6.10;99.90;;;;;;5106667;28;19920;-69
2023/12/15 08:38:11;;;;;;;;;;;6.10;99.90;;;;;;5105060;28;20341;-69
2023/12/15 08:40:36;;;;;;;;;;;6.10;99.90;;;;;;5100033;28;19938;-69
2023/12/15 08:43:02;;;;;;;;;;;6.20;99.90;;;;;;5113862;27;19908;-69
2023/12/15 08:45:28;;;;;;;;;;;6.20;99.90;;;;;;5098897;28;19912;-69
2023/12/15 08:47:54;;;;;;;;;;;6.20;99.90;;;;;;5100367;28;19953;-69
2023/12/15 08:50:19;;;;;;;;;;;6.20;99.90;;;;;;5095519;27;20395;-69
2023/12/15 08:52:45;;;;;;;;;;;6.20;99.90;;;;;;5115016;27;19919;-69
2023/12/15 08:55:10;;;;;;;;;;;6.20;99.90;;;;;;5099161;28;20645;-69
2023/12/15 08:57:36;;;;;;;;;;;6.20;99.90;;;;;;5106449;28;19918;-69
2023/12/15 09:00:04;;;;;;;;;;;6.20;99.90;;;;;;5106038;28;20356;-69
2023/12/15 09:02:29;;;;;;;;;;;6.20;99.90;;;;;;5106567;28;19912;-69
2023/12/15 09:04:55;;;;;;;;;;;6.20;99.90;;;;;;5105754;28;19912;-69
2023/12/15 09:07:21;;;;;;;;;;;6.20;99.90;;;;;;5111007;27;19912;-69
2023/12/15 09:09:46;;;;;;;;;;;6.30;99.90;;;;;;5110127;27;19912;-69
2023/12/15 09:12:12;;;;;;;;;;;6.30;99.90;;;;;;5114852;27;19963;-69
2023/12/15 09:14:37;;;;;;;;;;;6.30;99.90;;;;;;5105986;28;20404;-69
2023/12/15 09:17:03;;;;;;;;;;;6.30;99.90;;;;;;5105158;28;20543;-69
2023/12/15 09:19:29;;;;;;;;;;;6.30;99.90;;;;;;5105824;28;19916;-69
2023/12/15 09:21:55;;;;;;;;;;;6.30;99.90;;;;;;5105825;28;19996;-69
2023/12/15 09:24:20;;;;;;;;;;;6.30;99.90;;;;;;5105388;28;19957;-69
2023/12/15 09:26:46;;;;;;;;;;;6.30;99.90;;;;;;5105963;28;20469;-69
2023/12/15 09:29:11;;;;;;;;;;;6.30;99.90;;;;;;5105939;28;20368;-69
2023/12/15 09:31:37;;;;;;;;;;;6.30;99.90;;;;;;5118387;27;19916;-69
2023/12/15 09:34:03;;;;;;;;;;;6.30;99.90;;;;;;5107867;27;19920;-69
2023/12/15 09:36:29;;;;;;;;;;;6.30;99.90;;;;;;5112015;27;20024;-69
2023/12/15 09:38:54;;;;;;;;;;;6.40;99.90;;;;;;5109067;27;19919;-69
2023/12/15 09:41:20;;;;;;;;;;;6.40;99.90;;;;;;5106302;28;20057;-69
2023/12/15 09:43:45;;;;;;;;;;;6.40;99.90;;;;;;5105944;28;19955;-69
2023/12/15 09:46:11;;;;;;;;;;;6.40;99.90;;;;;;5105755;27;20291;-69
2023/12/15 09:48:37;;;;;;;;;;;6.40;99.90;;;;;;5106587;28;19915;-69
2023/12/15 09:51:05;;;;;;;;;;;6.40;99.90;;;;;;5105795;28;19919;-69
2023/12/15 09:53:35;;;;;;;;;;;6.40;99.90;;;;;;5105670;27;19965;-69
2023/12/15 09:56:01;;;;;;;;;;;6.40;99.90;;;;;;5109214;27;19919;-68
2023/12/15 09:58:27;;;;;;;;;;;6.40;99.90;;;;;;5108351;27;19911;-69
2023/12/15 10:00:52;;;;;;;;;;;6.40;99.90;;;;;;5105633;28;19960;-69
2023/12/15 10:03:18;;;;;;;;;;;6.40;99.90;;;;;;5106074;27;19972;-69
2023/12/15 10:05:43;;;;;;;;;;;6.50;99.90;;;;;;5107612;27;19987;-69
2023/12/15 10:08:09;;;;;;;;;;;6.50;99.90;;;;;;5107394;27;19944;-69
2023/12/15 10:10:34;;;;;;;;;;;6.50;99.90;;;;;;5104352;28;20372;-69
2023/12/15 10:13:00;;;;;;;;;;;6.50;99.90;;;;;;5108071;27;19915;-69
2023/12/15 10:15:26;;;;;;;;;;;6.50;99.90;;;;;;5105119;28;20581;-69
2023/12/15 10:17:53;;;;;;;;;;;6.50;99.90;;;;;;5106858;27;20249;-69
2023/12/15 10:20:19;;;;;;;;;;;6.50;99.90;;;;;;5103554;28;19915;-69
2023/12/15 10:22:45;;;;;;;;;;;6.50;99.90;;;;;;5100843;28;19916;-69
2023/12/15 10:25:16;;;;;;;;;;;6.50;99.90;;;;;;5103636;27;20036;-69
2023/12/15 10:27:42;;;;;;;;;;;6.60;99.90;;;;;;5102824;28;20105;-69
2023/12/15 10:30:08;;;;;;;;;;;6.60;99.90;;;;;;5101731;27;20015;-69
2023/12/15 10:32:33;;;;;;;;;;;6.60;99.90;;;;;;5102987;28;20579;-69
2023/12/15 10:35:02;;;;;;;;;;;6.60;99.90;;;;;;5103042;27;20516;-69
2023/12/15 10:37:28;;;;;;;;;;;6.60;99.90;;;;;;5111090;27;19915;-69
2023/12/15 10:39:54;;;;;;;;;;;6.60;99.90;;;;;;5113450;27;19923;-69
2023/12/15 10:42:21;;;;;;;;;;;6.60;99.90;;;;;;5117641;27;19944;-69
2023/12/15 10:44:46;;;;;;;;;;;6.60;99.90;;;;;;5117337;27;19917;-69
2023/12/15 10:47:12;;;;;;;;;;;6.60;99.90;;;;;;5104980;27;19912;-69
2023/12/15 10:49:38;;;;;;;;;;;6.60;99.90;;;;;;5105277;28;20387;-69
2023/12/15 10:52:05;;;;;;;;;;;6.70;99.90;;;;;;5102940;27;19911;-69
2023/12/15 10:54:32;;;;;;;;;;;6.70;99.90;;;;;;5125780;27;19911;-69
2023/12/15 10:56:57;;;;;;;;;;;6.70;99.90;;;;;;5107293;27;20380;-69
2023/12/15 10:59:23;;;;;;;;;;;6.70;99.90;;;;;;5105403;28;19926;-69
2023/12/15 11:01:49;;;;;;;;;;;6.70;99.90;;;;;;5105894;28;19920;-69
2023/12/15 11:04:21;;;;;;;;;;;6.80;99.90;;;;;;5096876;28;19936;-69
2023/12/15 11:06:48;;;;;;;;;;;6.80;99.90;;;;;;5104783;28;19982;-69
2023/12/15 11:09:25;;;;;;;;;;;6.80;99.90;;;;;;5104952;28;19912;-69
2023/12/15 11:11:51;;;;;;;;;;;6.80;99.90;;;;;;5105186;28;19908;-69
2023/12/15 11:14:17;;;;;;;;;;;6.80;99.90;;;;;;5104128;28;19918;-69
2023/12/15 11:16:45;;;;;;;;;;;6.80;99.90;;;;;;5104894;28;20474;-69
2023/12/15 11:19:10;;;;;;;;;;;6.80;99.90;;;;;;5113396;27;19915;-69
2023/12/15 11:21:36;;;;;;;;;;;6.90;99.90;;;;;;5102703;28;19911;-69
2023/12/15 11:24:07;;;;;;;;;;;6.90;99.90;;;;;;5103434;28;19941;-69
2023/12/15 11:26:39;;;;;;;;;;;6.90;99.90;;;;;;5105152;28;19947;-69
2023/12/15 11:29:06;;;;;;;;;;;6.90;99.90;;;;;;5104043;28;20289;-69
2023/12/15 11:31:33;;;;;;;;;;;6.90;99.90;;;;;;5103562;28;19965;-69
2023/12/15 11:33:59;;;;;;;;;;;6.90;99.90;;;;;;5114707;28;20599;-69
2023/12/15 11:36:26;;;;;;;;;;;6.90;99.90;;;;;;5111638;27;19957;-69
2023/12/15 11:38:52;;;;;;;;;;;7.00;99.90;;;;;;5113314;28;19911;-69
2023/12/15 11:41:22;;;;;;;;;;;7.00;99.90;;;;;;5103914;28;19938;-69
2023/12/15 11:43:48;;;;;;;;;;;7.00;99.90;;;;;;5105354;28;19968;-69
2023/12/15 11:46:14;;;;;;;;;;;7.00;99.90;;;;;;5124651;27;19918;-69
2023/12/15 11:48:41;;;;;;;;;;;7.00;99.90;;;;;;5110226;27;20346;-69
2023/12/15 11:51:08;;;;;;;;;;;7.00;99.90;;;;;;5115273;28;19919;-69
2023/12/15 11:53:35;;;;;;;;;;;7.00;99.90;;;;;;5101941;27;20012;-69
2023/12/15 11:56:01;;;;;;;;;;;7.10;99.90;;;;;;5112988;27;19911;-69
2023/12/15 11:58:27;;;;;;;;;;;7.10;99.90;;;;;;5110201;28;19918;-68
2023/12/15 12:00:52;;;;;;;;;;;7.10;99.90;;;;;;5107651;27;20265;-69
2023/12/15 12:03:21;;;;;;;;;;;7.10;99.90;;;;;;5108856;28;19911;-69
2023/12/15 12:05:48;;;;;;;;;;;7.10;99.90;;;;;;5117917;27;20287;-69
2023/12/15 12:08:14;;;;;;;;;;;7.10;99.90;;;;;;5116804;27;19919;-69
2023/12/15 12:10:40;;;;;;;;;;;7.10;99.90;;;;;;5115204;27;20444;-69
2023/12/15 12:13:06;;;;;;;;;;;7.10;99.90;;;;;;5120185;27;20268;-69
2023/12/15 12:15:32;;;;;;;;;;;7.20;99.90;;;;;;5114243;27;19908;-71
2023/12/15 12:17:57;;;;;;;;;;;7.20;99.90;;;;;;5108903;28;19912;-71
2023/12/15 12:20:29;;;;;;;;;;;7.20;99.90;;;;;;5107533;28;19916;-71
2023/12/15 12:22:55;;;;;;;;;;;7.20;99.90;;;;;;5114484;27;19916;-71
2023/12/15 12:25:21;;;;;;;;;;;7.20;99.90;;;;;;5109153;28;19976;-71
2023/12/15 12:27:46;;;;;;;;;;;7.30;99.90;;;;;;5108635;28;20366;-71
2023/12/15 12:30:13;;;;;;;;;;;7.20;99.90;;;;;;5107264;28;20424;-71
2023/12/15 12:32:41;;;;;;;;;;;7.20;99.90;;;;;;5107331;28;20372;-71
2023/12/15 12:35:07;;;;;;;;;;;7.30;99.90;;;;;;5108146;27;19973;-71
2023/12/15 12:37:33;;;;;;;;;;;7.30;99.90;;;;;;5108590;27;19916;-71
2023/12/15 12:39:59;;;;;;;;;;;7.30;99.90;;;;;;5108385;28;20006;-71
2023/12/15 12:42:26;;;;;;;;;;;7.30;99.90;;;;;;5113781;27;19919;-71
2023/12/15 12:44:54;;;;;;;;;;;7.30;99.90;;;;;;5111965;27;20437;-72
2023/12/15 12:47:20;;;;;;;;;;;7.30;99.90;;;;;;5108335;28;19919;-71
2023/12/15 12:49:46;;;;;;;;;;;7.30;99.90;;;;;;5108579;28;19912;-71
2023/12/15 12:52:12;;;;;;;;;;;7.30;99.90;;;;;;5106687;27;19919;-71
2023/12/15 12:54:37;;;;;;;;;;;7.30;99.90;;;;;;5120865;27;20749;-71
2023/12/15 12:57:03;;;;;;;;;;;7.30;99.90;;;;;;5107706;28;19919;-71
2023/12/15 12:59:29;;;;;;;;;;;7.40;99.90;;;;;;5116306;27;20283;-71
2023/12/15 13:01:55;;;;;;;;;;;7.40;99.90;;;;;;5106814;28;19942;-71
2023/12/15 13:04:21;;;;;;;;;;;7.40;99.90;;;;;;5112614;27;19988;-71
2023/12/15 13:06:47;;;;;;;;;;;7.40;99.90;;;;;;5112228;27;19912;-71
2023/12/15 13:09:18;;;;;;;;;;;7.40;99.90;;;;;;5108187;27;19942;-71
2023/12/15 13:11:44;;;;;;;;;;;7.40;99.90;;;;;;5108304;28;20380;-71
2023/12/15 13:14:09;;;;;;;;;;;7.50;99.90;;;;;;5116664;27;19995;-71
2023/12/15 13:16:35;;;;;;;;;;;7.40;99.90;;;;;;5105718;28;19919;-71
2023/12/15 13:19:00;;;;;;;;;;;7.40;99.90;;;;;;5105808;28;20030;-71
2023/12/15 13:21:26;;;;;;;;;;;7.50;99.90;;;;;;5106593;28;19980;-71
2023/12/15 13:23:51;;;;;;;;;;;7.50;99.90;;;;;;5102294;28;19908;-71
2023/12/15 13:26:17;;;;;;;;;;;7.50;99.90;;;;;;5114802;27;19907;-71
2023/12/15 13:28:42;;;;;;;;;;;7.50;99.90;;;;;;5113990;27;20513;-71
2023/12/15 13:31:08;;;;;;;;;;;7.50;99.90;;;;;;5104165;27;19923;-71
2023/12/15 13:33:33;;;;;;;;;;;7.50;99.90;;;;;;5104638;28;19920;-71
2023/12/15 13:35:59;;;;;;;;;;;7.50;99.90;;;;;;5106872;28;19911;-71
2023/12/15 13:38:26;;;;;;;;;;;7.50;99.90;;;;;;5107881;28;20325;-71
2023/12/15 13:40:52;;;;;;;;;;;7.50;99.90;;;;;;5107424;28;19934;-71
2023/12/15 13:43:18;;;;;;;;;;;7.50;99.90;;;;;;5107982;28;20580;-71
2023/12/15 13:45:45;;;;;;;;;;;7.50;99.90;;;;;;5106508;28;21574;-71
2023/12/15 13:48:11;;;;;;;;;;;7.50;99.90;;;;;;5114277;27;19958;-71
2023/12/15 13:50:36;;;;;;;;;;;7.50;99.90;;;;;;5107057;28;19912;-71
2023/12/15 13:53:02;;;;;;;;;;;7.50;99.90;;;;;;5105585;28;20276;-71
2023/12/15 13:55:28;;;;;;;;;;;7.50;99.90;;;;;;5106979;28;19923;-71
2023/12/15 13:57:54;;;;;;;;;;;7.50;99.90;;;;;;5107050;28;19912;-71
2023/12/15 14:00:21;;;;;;;;;;;7.50;99.90;;;;;;5115631;27;19968;-71
2023/12/15 14:02:47;;;;;;;;;;;7.50;99.90;;;;;;5107219;28;19968;-71
2023/12/15 14:05:12;;;;;;;;;;;7.50;99.90;;;;;;5105610;28;19923;-71
2023/12/15 14:07:38;;;;;;;;;;;7.50;99.90;;;;;;5107103;28;19911;-71
2023/12/15 14:10:05;;;;;;;;;;;7.50;99.90;;;;;;5107059;28;19912;-71
2023/12/15 14:12:31;;;;;;;;;;;7.50;99.90;;;;;;5103300;28;19915;-71
2023/12/15 14:14:57;;;;;;;;;;;7.50;99.90;;;;;;5087724;28;19949;-71
2023/12/15 14:17:22;;;;;;;;;;;7.50;99.90;;;;;;5111295;27;20360;-71
2023/12/15 14:19:50;;;;;;;;;;;7.50;99.90;;;;;;5114033;27;20393;-71
2023/12/15 14:22:16;;;;;;;;;;;7.50;99.90;;;;;;5101420;27;19941;-71